createdAt,value
2023-07-02T00:02:26.192Z,69.60
2023-07-02T00:04:53.005Z,69.50
2023-07-02T00:07:19.742Z,69.50
2023-07-02T00:09:46.425Z,69.50
2023-07-02T00:12:14.476Z,69.60
2023-07-02T00:14:41.139Z,69.60
2023-07-02T00:17:07.903Z,69.60
2023-07-02T00:19:34.714Z,69.60
2023-07-02T00:22:01.431Z,69.70
2023-07-02T00:24:28.093Z,69.60
2023-07-02T00:26:54.742Z,69.60
2023-07-02T00:29:21.825Z,69.60
2023-07-02T00:31:48.488Z,69.50
2023-07-02T00:34:15.137Z,69.60
2023-07-02T00:36:42.814Z,69.60
2023-07-02T00:39:09.702Z,69.70
2023-07-02T00:41:36.371Z,69.60
2023-07-02T00:44:03.082Z,69.60
2023-07-02T00:46:29.909Z,69.50
2023-07-02T00:48:56.888Z,69.40
2023-07-02T00:51:26.124Z,69.40
2023-07-02T00:53:57.254Z,69.40
2023-07-02T00:56:25.218Z,69.40
2023-07-02T00:58:55.631Z,69.30
2023-07-02T01:01:26.220Z,69.30
2023-07-02T01:03:57.897Z,69.40
2023-07-02T01:06:26.233Z,69.50
2023-07-02T01:08:57.535Z,69.50
2023-07-02T01:11:30.918Z,69.60
2023-07-02T01:14:06.503Z,69.60
2023-07-02T01:16:35.088Z,69.60
2023-07-02T01:19:05.604Z,69.60
2023-07-02T01:21:33.705Z,69.60
2023-07-02T01:24:02.179Z,69.60
2023-07-02T01:26:35.854Z,69.60
2023-07-02T01:29:19.062Z,69.60
2023-07-02T01:31:46.832Z,69.70
2023-07-02T01:34:14.377Z,69.60
2023-07-02T01:36:41.671Z,69.70
2023-07-02T01:39:08.613Z,69.70
2023-07-02T01:41:46.473Z,69.80
2023-07-02T01:44:13.236Z,69.90
2023-07-02T01:46:40.021Z,69.80
2023-07-02T01:49:06.726Z,69.80
2023-07-02T01:51:34.621Z,69.80
2023-07-02T01:54:02.023Z,69.80
2023-07-02T01:56:29.275Z,69.80
2023-07-02T01:58:56.253Z,69.70
2023-07-02T02:01:22.996Z,69.70
2023-07-02T02:03:49.697Z,69.60
2023-07-02T02:06:16.458Z,69.50
2023-07-02T02:08:43.106Z,69.60
2023-07-02T02:11:09.802Z,69.50
2023-07-02T02:13:36.498Z,69.50
2023-07-02T02:16:03.322Z,69.40
2023-07-02T02:18:30.041Z,69.40
2023-07-02T02:20:56.743Z,69.30
2023-07-02T02:23:23.416Z,69.30
2023-07-02T02:25:50.040Z,69.20
2023-07-02T02:28:16.748Z,69.20
2023-07-02T02:30:43.400Z,69.10
2023-07-02T02:33:09.989Z,69.00
2023-07-02T02:35:36.647Z,68.80
2023-07-02T02:38:04.324Z,68.70
2023-07-02T02:40:31.306Z,68.70
2023-07-02T02:42:57.950Z,68.70
2023-07-02T02:45:24.524Z,68.70
2023-07-02T02:47:51.174Z,68.60
2023-07-02T02:50:17.987Z,68.50
2023-07-02T02:52:44.636Z,68.60
2023-07-02T02:55:13.292Z,68.60
2023-07-02T02:57:39.980Z,68.60
2023-07-02T03:00:08.112Z,68.70
2023-07-02T03:02:34.870Z,68.70
2023-07-02T03:05:03.993Z,68.70
2023-07-02T03:07:31.115Z,68.70
2023-07-02T03:09:57.867Z,68.70
2023-07-02T03:12:26.832Z,68.60
2023-07-02T03:14:55.399Z,68.60
2023-07-02T03:17:22.643Z,68.60
2023-07-02T03:19:49.527Z,68.70
2023-07-02T03:22:16.375Z,68.70
2023-07-02T03:24:43.109Z,68.70
2023-07-02T03:27:09.925Z,68.80
2023-07-02T03:29:36.903Z,68.70
2023-07-02T03:32:03.750Z,68.80
2023-07-02T03:34:31.836Z,68.80
2023-07-02T03:36:58.770Z,68.80
2023-07-02T03:39:25.418Z,68.80
2023-07-02T03:41:52.541Z,68.70
2023-07-02T03:44:20.662Z,68.80
2023-07-02T03:46:47.372Z,68.80
2023-07-02T03:49:14.205Z,68.70
2023-07-02T03:51:40.871Z,68.60
2023-07-02T03:54:07.533Z,68.60
2023-07-02T03:56:34.182Z,68.50
2023-07-02T03:59:00.825Z,68.50
2023-07-02T04:01:27.501Z,68.40
2023-07-02T04:03:55.137Z,68.20
2023-07-02T04:06:21.887Z,68.10
2023-07-02T04:08:48.562Z,68.10
2023-07-02T04:11:15.256Z,68.10
2023-07-02T04:13:42.224Z,68.00
2023-07-02T04:16:08.980Z,67.90
2023-07-02T04:18:35.677Z,67.70
2023-07-02T04:21:03.386Z,67.60
2023-07-02T04:23:30.315Z,67.40
2023-07-02T04:26:04.283Z,67.30
2023-07-02T04:28:44.786Z,67.10
2023-07-02T04:31:11.640Z,66.90
2023-07-02T04:33:38.406Z,66.60
2023-07-02T04:36:05.426Z,66.40
2023-07-02T04:38:32.176Z,66.20
2023-07-02T04:41:02.588Z,66.00
2023-07-02T04:43:32.386Z,65.80
2023-07-02T04:45:59.122Z,65.60
2023-07-02T04:48:26.105Z,65.40
2023-07-02T04:50:52.823Z,65.10
2023-07-02T04:53:19.518Z,64.70
2023-07-02T04:55:46.328Z,64.50
2023-07-02T04:58:12.981Z,64.40
2023-07-02T05:00:39.650Z,64.10
2023-07-02T05:03:06.382Z,63.60
2023-07-02T05:05:33.099Z,63.20
2023-07-02T05:07:59.795Z,62.30
2023-07-02T05:10:26.439Z,61.40
2023-07-02T05:12:53.082Z,59.80
2023-07-02T05:15:19.744Z,54.50
2023-07-02T05:17:46.509Z,49.40
2023-07-02T05:20:13.480Z,45.40
2023-07-02T05:22:40.104Z,42.20
2023-07-02T05:25:07.153Z,39.50
2023-07-02T05:27:34.026Z,37.80
2023-07-02T05:30:00.669Z,38.20
2023-07-02T05:32:27.339Z,39.60
2023-07-02T05:34:54.053Z,41.00
2023-07-02T05:37:20.781Z,41.80
2023-07-02T05:39:47.407Z,42.90
2023-07-02T05:42:14.071Z,42.20
2023-07-02T05:44:40.703Z,39.40
2023-07-02T05:47:07.496Z,38.30
2023-07-02T05:49:34.242Z,38.20
2023-07-02T05:52:00.986Z,35.70
2023-07-02T05:54:27.614Z,33.10
2023-07-02T05:56:54.247Z,30.70
2023-07-02T05:59:20.924Z,28.90
2023-07-02T06:01:47.661Z,27.80
2023-07-02T06:04:14.592Z,26.40
2023-07-02T06:06:41.839Z,25.50
2023-07-02T06:09:08.461Z,25.10
2023-07-02T06:11:35.813Z,24.60
2023-07-02T06:14:02.490Z,24.20
2023-07-02T06:16:29.181Z,23.90
2023-07-02T06:18:56.070Z,23.90
2023-07-02T06:21:22.798Z,24.20
2023-07-02T06:23:49.940Z,24.80
2023-07-02T06:26:16.673Z,25.90
2023-07-02T06:28:43.328Z,27.20
2023-07-02T06:31:11.027Z,27.30
2023-07-02T06:33:40.644Z,28.00
2023-07-02T06:36:07.393Z,29.30
2023-07-02T06:38:34.029Z,30.10
2023-07-02T06:41:00.720Z,30.50
2023-07-02T06:43:27.549Z,30.70
2023-07-02T06:45:54.398Z,31.30
2023-07-02T06:48:22.514Z,31.90
2023-07-02T06:50:49.753Z,32.30
2023-07-02T06:53:16.672Z,32.90
2023-07-02T06:55:43.305Z,33.40
2023-07-02T06:58:10.072Z,33.50
2023-07-02T07:00:36.850Z,33.70
2023-07-02T07:03:06.828Z,33.90
2023-07-02T07:05:33.521Z,34.10
2023-07-02T07:08:01.981Z,34.50
2023-07-02T07:10:29.180Z,34.70
2023-07-02T07:12:55.864Z,34.70
2023-07-02T07:15:22.545Z,34.70
2023-07-02T07:17:49.929Z,34.90
2023-07-02T07:20:16.758Z,34.90
2023-07-02T07:22:43.441Z,34.90
2023-07-02T07:25:10.241Z,35.00
2023-07-02T07:27:36.968Z,35.10
2023-07-02T07:30:03.951Z,35.00
2023-07-02T07:32:30.653Z,35.20
2023-07-02T07:34:57.390Z,35.20
2023-07-02T07:37:25.997Z,35.30
2023-07-02T07:39:53.013Z,35.50
2023-07-02T07:42:19.705Z,35.10
2023-07-02T07:44:47.437Z,35.10
2023-07-02T07:47:14.277Z,35.10
2023-07-02T07:49:40.946Z,35.10
2023-07-02T07:52:08.100Z,35.20
2023-07-02T07:54:37.779Z,35.00
2023-07-02T07:57:05.672Z,35.30
2023-07-02T07:59:32.348Z,34.90
2023-07-02T08:01:59.050Z,35.40
2023-07-02T08:04:25.810Z,35.90
2023-07-02T08:06:52.490Z,36.00
2023-07-02T08:09:19.107Z,36.10
2023-07-02T08:11:45.761Z,36.60
2023-07-02T08:14:13.700Z,37.00
2023-07-02T08:16:40.411Z,37.20
2023-07-02T08:19:07.061Z,37.00
2023-07-02T08:21:33.732Z,37.20
2023-07-02T08:24:00.512Z,37.10
2023-07-02T08:26:27.187Z,37.30
2023-07-02T08:28:53.944Z,37.50
2023-07-02T08:31:20.675Z,37.70
2023-07-02T08:33:47.345Z,38.20
2023-07-02T08:36:14.884Z,38.50
2023-07-02T08:38:44.150Z,38.80
2023-07-02T08:41:11.190Z,38.80
2023-07-02T08:43:38.507Z,38.60
2023-07-02T08:46:05.385Z,38.30
2023-07-02T08:48:32.262Z,38.10
2023-07-02T08:50:59.215Z,37.20
2023-07-02T08:53:30.572Z,37.20
2023-07-02T08:55:57.527Z,37.50
2023-07-02T08:58:24.209Z,37.70
2023-07-02T09:01:14.011Z,37.40
2023-07-02T09:03:41.821Z,37.10
2023-07-02T09:06:11.001Z,37.60
2023-07-02T09:08:38.657Z,37.80
2023-07-02T09:11:12.101Z,37.60
2023-07-02T09:13:45.735Z,37.40
2023-07-02T09:16:34.010Z,37.10
2023-07-02T09:19:06.419Z,37.00
2023-07-02T09:21:46.557Z,36.90
2023-07-02T09:24:24.028Z,36.50
2023-07-02T09:26:55.423Z,36.70
2023-07-02T09:29:30.504Z,36.70
2023-07-02T09:32:10.576Z,36.10
2023-07-02T09:34:41.483Z,35.70
2023-07-02T09:37:08.331Z,35.30
2023-07-02T09:39:36.661Z,34.90
2023-07-02T09:42:07.865Z,34.90
2023-07-02T09:44:35.841Z,34.60
2023-07-02T09:47:04.350Z,34.40
2023-07-02T09:49:35.899Z,34.20
2023-07-02T09:52:04.972Z,33.80
2023-07-02T09:54:32.078Z,34.20
2023-07-02T09:57:00.452Z,34.20
2023-07-02T09:59:27.350Z,34.20
2023-07-02T10:01:54.190Z,33.80
2023-07-02T10:04:22.455Z,33.70
2023-07-02T10:06:57.054Z,33.20
2023-07-02T10:09:45.638Z,32.90
2023-07-02T10:12:22.932Z,33.20
2023-07-02T10:14:51.310Z,33.00
2023-07-02T10:17:34.214Z,33.20
2023-07-02T10:20:08.004Z,33.40
2023-07-02T10:22:45.114Z,33.60
2023-07-02T10:25:11.948Z,33.60
2023-07-02T10:27:42.365Z,33.60
2023-07-02T10:30:10.998Z,33.30
2023-07-02T10:32:39.241Z,33.50
2023-07-02T10:35:19.152Z,33.10
2023-07-02T10:37:46.240Z,33.30
2023-07-02T10:40:13.720Z,33.20
2023-07-02T10:42:51.164Z,32.90
2023-07-02T10:45:18.637Z,32.70
2023-07-02T10:47:45.769Z,32.70
2023-07-02T10:50:22.558Z,32.20
2023-07-02T10:52:51.630Z,31.60
2023-07-02T10:55:22.602Z,31.60
2023-07-02T10:57:52.317Z,31.30
2023-07-02T11:00:20.364Z,30.70
2023-07-02T11:02:47.624Z,30.70
2023-07-02T11:05:15.430Z,30.70
2023-07-02T11:07:43.330Z,30.60
2023-07-02T11:10:11.022Z,30.60
2023-07-02T11:12:37.919Z,30.50
2023-07-02T11:15:21.083Z,29.70
2023-07-02T11:17:47.936Z,29.90
2023-07-02T11:20:16.298Z,29.30
2023-07-02T11:22:43.170Z,29.20
2023-07-02T11:25:11.384Z,29.10
2023-07-02T11:27:38.327Z,29.10
2023-07-02T11:30:05.652Z,29.40
2023-07-02T11:32:32.382Z,29.50
2023-07-02T11:34:59.078Z,29.20
2023-07-02T11:37:27.142Z,29.10
2023-07-02T11:39:53.967Z,29.10
2023-07-02T11:42:21.793Z,29.20
2023-07-02T11:44:48.537Z,29.30
2023-07-02T11:47:15.234Z,29.60
2023-07-02T11:49:41.895Z,29.50
2023-07-02T11:52:10.079Z,29.60
2023-07-02T11:54:36.798Z,29.70
2023-07-02T11:57:03.648Z,29.70
2023-07-02T11:59:30.316Z,29.50
2023-07-02T12:01:57.095Z,29.30
2023-07-02T12:04:23.995Z,29.40
2023-07-02T12:06:50.742Z,29.60
2023-07-02T12:09:17.381Z,29.70
2023-07-02T12:11:46.515Z,30.00
2023-07-02T12:14:13.736Z,29.90
2023-07-02T12:16:40.396Z,29.40
2023-07-02T12:19:07.149Z,29.20
2023-07-02T12:21:33.798Z,29.60
2023-07-02T12:24:00.491Z,29.80
2023-07-02T12:26:27.204Z,29.70
2023-07-02T12:28:53.857Z,29.70
2023-07-02T12:31:20.550Z,29.60
2023-07-02T12:33:47.366Z,29.50
2023-07-02T12:36:15.110Z,29.40
2023-07-02T12:38:41.777Z,29.60
2023-07-02T12:41:08.669Z,29.50
2023-07-02T12:43:35.388Z,29.50
2023-07-02T12:46:02.202Z,29.00
2023-07-02T12:48:28.951Z,29.00
2023-07-02T12:50:59.793Z,29.00
2023-07-02T12:53:27.936Z,28.90
2023-07-02T12:55:55.981Z,29.00
2023-07-02T12:58:22.763Z,29.20
2023-07-02T13:00:49.577Z,29.20
2023-07-02T13:03:21.450Z,29.40
2023-07-02T13:05:48.994Z,29.10
2023-07-02T13:08:16.185Z,29.20
2023-07-02T13:10:43.228Z,29.20
2023-07-02T13:13:22.180Z,29.20
2023-07-02T13:15:50.667Z,29.50
2023-07-02T13:18:17.726Z,29.50
2023-07-02T13:20:44.802Z,29.50
2023-07-02T13:23:11.768Z,29.40
2023-07-02T13:25:38.772Z,28.90
2023-07-02T13:28:05.975Z,28.70
2023-07-02T13:30:32.634Z,28.70
2023-07-02T13:32:59.441Z,28.50
2023-07-02T13:35:26.120Z,28.40
2023-07-02T13:37:52.742Z,28.40
2023-07-02T13:40:19.559Z,28.50
2023-07-02T13:42:46.456Z,28.50
2023-07-02T13:45:13.337Z,28.30
2023-07-02T13:47:40.067Z,28.30
2023-07-02T13:50:07.375Z,28.20
2023-07-02T13:52:34.037Z,28.20
2023-07-02T13:55:00.780Z,28.30
2023-07-02T13:57:27.431Z,28.60
2023-07-02T13:59:54.315Z,28.40
2023-07-02T14:02:21.126Z,28.50
2023-07-02T14:04:47.868Z,28.40
2023-07-02T14:07:15.173Z,28.20
2023-07-02T14:09:41.875Z,28.30
2023-07-02T14:12:09.042Z,28.50
2023-07-02T14:14:35.662Z,28.90
2023-07-02T14:17:02.307Z,29.20
2023-07-02T14:19:28.934Z,29.30
2023-07-02T14:21:55.580Z,29.40
2023-07-02T14:24:22.210Z,29.80
2023-07-02T14:26:48.841Z,30.00
2023-07-02T14:29:15.543Z,30.10
2023-07-02T14:31:42.301Z,29.80
2023-07-02T14:34:09.004Z,30.00
2023-07-02T14:36:35.651Z,30.30
2023-07-02T14:39:02.390Z,30.10
2023-07-02T14:41:31.781Z,29.90
2023-07-02T14:43:58.429Z,30.20
2023-07-02T14:46:25.079Z,30.60
2023-07-02T14:48:51.766Z,30.10
2023-07-02T14:51:18.754Z,30.00
2023-07-02T14:53:45.409Z,30.10
2023-07-02T14:56:12.076Z,30.20
2023-07-02T14:58:39.222Z,30.30
2023-07-02T15:01:05.992Z,30.00
2023-07-02T15:03:32.866Z,30.10
2023-07-02T15:06:14.756Z,30.00
2023-07-02T15:08:41.513Z,29.60
2023-07-02T15:11:08.986Z,29.50
2023-07-02T15:13:35.732Z,29.90
2023-07-02T15:16:02.586Z,29.80
2023-07-02T15:18:29.278Z,29.50
2023-07-02T15:20:55.992Z,29.50
2023-07-02T15:23:23.796Z,29.60
2023-07-02T15:25:55.204Z,29.70
2023-07-02T15:28:22.756Z,29.80
2023-07-02T15:31:06.888Z,29.80
2023-07-02T15:33:34.027Z,30.00
2023-07-02T15:36:02.244Z,30.10
2023-07-02T15:38:29.612Z,29.90
2023-07-02T15:41:26.482Z,29.90
2023-07-02T15:43:54.853Z,30.00
2023-07-02T15:46:21.680Z,30.00
2023-07-02T15:48:51.425Z,30.50
2023-07-02T15:51:18.086Z,30.40
2023-07-02T15:53:44.777Z,30.10
2023-07-02T15:56:12.077Z,30.30
2023-07-02T15:58:38.771Z,30.40
2023-07-02T16:01:14.673Z,30.60
2023-07-02T16:03:41.609Z,30.60
2023-07-02T16:06:09.706Z,30.50
2023-07-02T16:08:37.360Z,30.50
2023-07-02T16:11:10.114Z,30.40
2023-07-02T16:13:38.350Z,30.30
2023-07-02T16:16:05.668Z,29.80
2023-07-02T16:18:32.467Z,30.00
2023-07-02T16:21:01.197Z,30.40
2023-07-02T16:23:28.090Z,30.40
2023-07-02T16:26:02.803Z,30.50
2023-07-02T16:28:30.367Z,30.60
2023-07-02T16:30:57.149Z,30.60
2023-07-02T16:33:23.921Z,30.80
2023-07-02T16:35:50.956Z,30.70
2023-07-02T16:38:18.026Z,30.90
2023-07-02T16:40:48.591Z,31.10
2023-07-02T16:43:15.871Z,30.70
2023-07-02T16:45:42.637Z,31.10
2023-07-02T16:48:09.358Z,31.10
2023-07-02T16:50:36.067Z,31.20
2023-07-02T16:53:02.696Z,31.20
2023-07-02T16:55:30.787Z,31.30
2023-07-02T16:57:57.581Z,31.40
2023-07-02T17:00:24.261Z,31.50
2023-07-02T17:02:51.066Z,31.60
2023-07-02T17:05:17.864Z,31.80
2023-07-02T17:07:44.659Z,31.90
2023-07-02T17:10:11.380Z,32.10
2023-07-02T17:12:38.930Z,32.20
2023-07-02T17:15:06.668Z,32.30
2023-07-02T17:17:33.532Z,32.60
2023-07-02T17:20:01.024Z,32.60
2023-07-02T17:22:30.886Z,32.70
2023-07-02T17:25:01.199Z,32.70
2023-07-02T17:27:29.542Z,32.60
2023-07-02T17:30:01.226Z,32.50
2023-07-02T17:32:28.746Z,32.60
2023-07-02T17:34:55.734Z,32.60
2023-07-02T17:37:22.668Z,32.60
2023-07-02T17:39:50.417Z,32.80
2023-07-02T17:42:18.401Z,33.00
2023-07-02T17:44:46.272Z,33.00
2023-07-02T17:47:19.078Z,33.00
2023-07-02T17:49:47.696Z,32.90
2023-07-02T17:52:17.375Z,33.10
2023-07-02T17:54:47.675Z,33.20
2023-07-02T17:57:18.296Z,33.30
2023-07-02T17:59:47.070Z,33.50
2023-07-02T18:02:15.728Z,33.40
2023-07-02T18:04:42.681Z,33.60
2023-07-02T18:07:19.719Z,33.80
2023-07-02T18:09:48.736Z,33.90
2023-07-02T18:12:26.281Z,34.00
2023-07-02T18:14:55.793Z,33.90
2023-07-02T18:17:22.664Z,33.90
2023-07-02T18:19:50.101Z,34.10
2023-07-02T18:22:16.882Z,34.10
2023-07-02T18:24:43.644Z,34.30
2023-07-02T18:27:11.000Z,34.50
2023-07-02T18:29:39.101Z,34.70
2023-07-02T18:32:07.717Z,34.70
2023-07-02T18:34:36.567Z,34.80
2023-07-02T18:37:05.944Z,35.00
2023-07-02T18:39:34.859Z,35.10
2023-07-02T18:42:07.187Z,35.20
2023-07-02T18:44:36.920Z,35.30
2023-07-02T18:47:07.045Z,35.40
2023-07-02T18:49:37.654Z,35.60
2023-07-02T18:52:07.289Z,35.60
2023-07-02T18:54:35.896Z,35.70
2023-07-02T18:57:04.628Z,35.80
2023-07-02T18:59:31.824Z,35.90
2023-07-02T19:02:00.072Z,36.00
2023-07-02T19:04:27.736Z,36.10
2023-07-02T19:06:57.365Z,36.30
2023-07-02T19:09:24.651Z,36.40
2023-07-02T19:11:51.353Z,36.60
2023-07-02T19:14:18.065Z,36.80
2023-07-02T19:16:44.829Z,37.00
2023-07-02T19:19:11.521Z,37.30
2023-07-02T19:21:38.159Z,37.50
2023-07-02T19:24:05.551Z,37.90
2023-07-02T19:26:32.227Z,38.00
2023-07-02T19:28:58.978Z,38.30
2023-07-02T19:31:25.700Z,38.60
2023-07-02T19:33:52.458Z,38.70
2023-07-02T19:36:19.178Z,38.80
2023-07-02T19:38:45.929Z,39.00
2023-07-02T19:41:12.628Z,39.20
2023-07-02T19:43:39.279Z,39.40
2023-07-02T19:46:05.938Z,39.70
2023-07-02T19:48:32.627Z,39.90
2023-07-02T19:51:04.461Z,40.10
2023-07-02T19:53:31.927Z,40.50
2023-07-02T19:55:59.148Z,40.70
2023-07-02T19:58:26.154Z,40.90
2023-07-02T20:00:53.370Z,41.10
2023-07-02T20:03:20.122Z,41.40
2023-07-02T20:05:46.954Z,41.60
2023-07-02T20:08:13.874Z,41.90
2023-07-02T20:10:40.630Z,42.20
2023-07-02T20:13:07.387Z,42.40
2023-07-02T20:15:34.153Z,42.50
2023-07-02T20:18:00.968Z,42.70
2023-07-02T20:20:31.843Z,42.80
2023-07-02T20:22:58.600Z,42.80
2023-07-02T20:27:58.658Z,43.10
2023-07-02T20:30:26.013Z,43.20
2023-07-02T20:32:52.768Z,43.50
2023-07-02T20:35:20.380Z,43.50
2023-07-02T20:37:51.176Z,43.70
2023-07-02T20:40:18.424Z,43.80
2023-07-02T20:42:45.330Z,44.00
2023-07-02T20:45:14.309Z,44.40
2023-07-02T20:47:42.509Z,44.50
2023-07-02T20:50:14.708Z,44.60
2023-07-02T20:52:42.102Z,44.90
2023-07-02T20:55:09.761Z,45.00
2023-07-02T20:57:36.636Z,45.20
2023-07-02T21:00:09.532Z,45.20
2023-07-02T21:02:36.180Z,45.30
2023-07-02T21:05:03.010Z,44.90
2023-07-02T21:07:29.656Z,45.00
2023-07-02T21:09:56.286Z,45.20
2023-07-02T21:12:22.942Z,45.30
2023-07-02T21:14:54.294Z,45.50
2023-07-02T21:17:21.507Z,45.70
2023-07-02T21:19:48.297Z,45.80
2023-07-02T21:22:15.332Z,45.90
2023-07-02T21:24:41.990Z,46.10
2023-07-02T21:27:08.653Z,46.20
2023-07-02T21:29:35.324Z,46.40
2023-07-02T21:32:02.201Z,46.50
2023-07-02T21:34:29.038Z,46.70
2023-07-02T21:36:55.749Z,46.80
2023-07-02T21:39:22.467Z,46.90
2023-07-02T21:41:49.306Z,47.10
2023-07-02T21:44:16.003Z,47.20
2023-07-02T21:46:42.743Z,47.30
2023-07-02T21:49:09.426Z,47.40
2023-07-02T21:51:36.083Z,47.60
2023-07-02T21:54:02.794Z,47.80
2023-07-02T21:56:29.413Z,47.80
2023-07-02T21:58:55.995Z,48.00
2023-07-02T22:01:23.015Z,47.70
2023-07-02T22:03:49.665Z,47.80
2023-07-02T22:06:16.326Z,48.00
2023-07-02T22:08:43.032Z,47.80
2023-07-02T22:11:22.942Z,47.90
2023-07-02T22:13:50.264Z,48.40
2023-07-02T22:16:16.921Z,48.40
2023-07-02T22:18:43.601Z,48.60
2023-07-02T22:21:10.310Z,48.80
2023-07-02T22:23:38.357Z,48.90
2023-07-02T22:26:05.150Z,49.10
2023-07-02T22:28:32.016Z,49.20
2023-07-02T22:30:59.025Z,49.30
2023-07-02T22:33:25.679Z,49.40
2023-07-02T22:35:52.581Z,49.60
2023-07-02T22:38:19.466Z,49.30
2023-07-02T22:40:46.286Z,49.40
2023-07-02T22:43:12.824Z,49.70
2023-07-02T22:45:39.550Z,49.40
2023-07-02T22:48:06.948Z,49.70
2023-07-02T22:50:33.805Z,50.00
2023-07-02T22:53:00.573Z,50.20
2023-07-02T22:55:30.818Z,50.50
2023-07-02T22:57:57.901Z,50.70
2023-07-02T23:00:24.898Z,50.80
2023-07-02T23:02:51.636Z,50.90
2023-07-02T23:05:20.434Z,51.00
2023-07-02T23:07:47.963Z,51.10
2023-07-02T23:10:16.914Z,51.20
2023-07-02T23:12:46.102Z,51.20
2023-07-02T23:15:14.681Z,51.30
2023-07-02T23:17:54.949Z,51.40
2023-07-02T23:20:21.944Z,51.70
2023-07-02T23:22:51.712Z,51.60
2023-07-02T23:25:24.414Z,51.70
2023-07-02T23:27:54.280Z,51.80
2023-07-02T23:30:26.314Z,51.50
2023-07-02T23:32:54.251Z,51.50
2023-07-02T23:35:21.787Z,51.60
2023-07-02T23:37:51.352Z,51.80
2023-07-02T23:40:18.442Z,51.90
2023-07-02T23:42:45.520Z,52.00
2023-07-02T23:45:13.941Z,52.10
2023-07-02T23:47:40.880Z,52.20
2023-07-02T23:50:08.756Z,52.20
2023-07-02T23:52:37.791Z,52.20
2023-07-02T23:55:10.311Z,52.20
2023-07-02T23:57:37.018Z,52.30
